Jacksonville, FL (32257)

5:52 AM EDT on June 27, 2017 (GMT -0400)
| | Change Station
Active Advisory: Special Statement

Elev -9999 ft 0.00 °N, 0.00 °E | Updated 6 minutes ago

Overcast
Overcast
°F
Feels Like °F
N
Wind Variable Wind from North
Gusts mph

Today
High -- | Low -- °F
--% Chance of Precip.
Yesterday
High -- | Low -- °F
Precip. -- in
Pressure 29.99 in
Visibility 10.0 miles
Clouds Few 2000 ft
Mostly Cloudy 10000 ft
Mostly Cloudy 18000 ft
Mostly Cloudy 25000 ft
Dew Point Not available.
Humidity Not available.
Rainfall --
Snow Depth Not available.
6:27 AM 8:31 PM
Waxing Crescent, 15% visible
METAR KNIP 270853Z 14004KT 10SM FEW020 BKN100 BKN180 BKN250 25/23 A3000 RMK AO2 SLP153 T02500228 58007 $
Pressure 29.99 in
Visibility 10.0 miles
Clouds Few 2000 ft
Mostly Cloudy 10000 ft
Mostly Cloudy 18000 ft
Mostly Cloudy 25000 ft
Dew Point Not available.
Humidity Not available.
Rainfall --
Snow Depth Not available.
6:27 AM 8:31 PM
Waxing Crescent, 15% visible
METAR KNIP 270853Z 14004KT 10SM FEW020 BKN100 BKN180 BKN250 25/23 A3000 RMK AO2 SLP153 T02500228 58007 $

Get Your Daily Forecast Email!

Thanks for signing up!

Be on the lookout for a verification email in your inbox.

You'll start receiving severe weather alerts in your inbox..

×

10-Day Weather Forecast

Almanac

Astronomy

Jun. 27, 2017 Rise Set
Actual Time
Civil Twilight
Nautical Twilight
Astronomical Twilight
Moon
Length of Visible Light
Length of Day
Tomorrow will be .
, % of the Moon is Illuminated

Today's Extremes

State Highs State Lows

Community

WunderPhotos

Category 6

Welcome to Category 6. This is the collective home for Weather Underground's featured writeups by Dr. Jeff Masters (right), Bob Henson (left), Chris Burt, and other regular contributors.

Nearby

Air Quality

  Air Quality AQ Index Pollutant
Not available.

Snow Depth

Station Depth Elevation

Earthquake Activity

City Distance Mag. Time & Date
Minimum magnitude displayed is 2.5.

Coastal Water Temperatures

Place Temperature

Stations

Nearby Weather Stations

Station Location Temp. Windchill Dew Point Humidity Wind Precip. Elev Updated Type
                   

Watches & Warnings

Special Statement
Issued: 3:09 AM EDT Jun. 27, 2017 – National Weather Service

... Patchy morning fog with visibility less than 1 mile at times...

Intermittent patchy ground fog will impact northeast Florida and
southeast Georgia through sunrise. Visibility may be reduced below
1 mile at times. Motorists please slow down and allow extra
driving distance between vehicles where visibilities are reduced.
The fog will lift through 8 am.